Главная страница
METAR-TAF:

METAR-TAF

Аэропорты :

Санкт-Петербург, Россия

Пулково

широта: 59-58N, долгота: 030-18E, высота над уровнем моря: 4 м

Текущие метеонаблюдения

Эта сводка был подготовлена 26 минут назад, в 07:00 UTC
Ветер 4 Узел от западно-северо-западный
Температура 4°C
Влажность 52%
Давление 1018 hPa
Видимость 10 км и более
Нет облачности ниже 1500 м, и нет кучево-дождевой облачности

METAR: ULLI 230700Z 30002MPS CAVOK 04/M05 Q1018 R88/090060 NOSIG

Время: 10:26 (07:26 UTC)

Прогноз

Эта сводка был подготовлена 2 часа и 29 минут назад, в 04:57 UTC
Прогноз действительный с 23-го 06 UTC до 24-го 06 UTC
Ветер 6 Узел от западный
Видимость 10 км и более
Нет облачности ниже 1500 м, и нет кучево-дождевой облачности
изменения
С 23-го 16 UTC до 23-го 18 UTC
Ветер 6 Узел от восточно-юго-восточный с порывами до 16 Узел
Рассеянная облачность на высоте 1500 фута

TAF: ULLI 230457Z 2306/2406 26003MPS CAVOK BECMG 2316/2318 12003G08MPS BKN015

Метеонаблюдения и прогнозы для более 4000 аэропортов (сводки METAR и TAF).

Имеющиеся станции представлены на карте желтыми и красными точками.

Чтобы увидеть название станции, наведите на нее мышь.

Затем щелкните, чтобы увидеть метеонаблюдения и метеопрогнозы.

Управление картой: чтобы увеличить масштаб, щелкните зеленые кнопки с черным крестиком; чтобы уменьшить масштаб, щелкните зеленую кнопку с тире; для просмотра соседних карт щелкайте зеленые стрелки.


METAR-TAF: